createdAt,value
2018-05-17T00:00:48.747Z,1025.93
2018-05-17T00:01:48.747Z,1025.88
2018-05-17T00:02:48.748Z,1025.87
2018-05-17T00:03:48.737Z,1025.9
2018-05-17T00:04:48.730Z,1025.89
2018-05-17T00:05:48.724Z,1025.89
2018-05-17T00:06:48.713Z,1025.84
2018-05-17T00:07:48.714Z,1025.86
2018-05-17T00:08:48.703Z,1025.83
2018-05-17T00:09:48.707Z,1025.83
2018-05-17T00:10:48.694Z,1025.85
2018-05-17T00:11:48.693Z,1025.86
2018-05-17T00:12:48.679Z,1025.87
2018-05-17T00:13:48.681Z,1025.84
2018-05-17T00:14:48.669Z,1025.82
2018-05-17T00:15:48.668Z,1025.85
2018-05-17T00:16:48.661Z,1025.85
2018-05-17T00:17:48.655Z,1025.86
2018-05-17T00:18:48.645Z,1025.89
2018-05-17T00:19:48.646Z,1025.86
2018-05-17T00:20:48.639Z,1025.88
2018-05-17T00:21:48.634Z,1025.88
2018-05-17T00:22:48.625Z,1025.89
2018-05-17T00:23:48.622Z,1025.91
2018-05-17T00:24:48.612Z,1025.88
2018-05-17T00:25:48.614Z,1025.88
2018-05-17T00:26:48.601Z,1025.89
2018-05-17T00:27:48.600Z,1025.91
2018-05-17T00:28:48.594Z,1025.93
2018-05-17T00:29:48.583Z,1025.95
2018-05-17T00:30:48.583Z,1025.94
2018-05-17T00:31:48.577Z,1025.96
2018-05-17T00:32:48.571Z,1025.99
2018-05-17T00:33:48.561Z,1025.95
2018-05-17T00:34:48.554Z,1025.99
2018-05-17T00:35:48.643Z,1025.98
2018-05-17T00:36:48.548Z,1025.93
2018-05-17T00:37:48.546Z,1025.93
2018-05-17T00:38:48.533Z,1025.92
2018-05-17T00:39:48.532Z,1025.91
2018-05-17T00:40:48.521Z,1025.94
2018-05-17T00:41:48.521Z,1025.91
2018-05-17T00:42:48.509Z,1025.91
2018-05-17T00:43:48.509Z,1025.89
2018-05-17T00:44:48.498Z,1025.85
2018-05-17T00:45:48.497Z,1025.86
2018-05-17T00:46:48.489Z,1025.84
2018-05-17T00:47:48.481Z,1025.84
2018-05-17T00:48:48.475Z,1025.81
2018-05-17T00:49:48.473Z,1025.8
2018-05-17T00:50:48.469Z,1025.78
2018-05-17T00:51:48.458Z,1025.81
2018-05-17T00:52:48.452Z,1025.8
2018-05-17T00:53:48.451Z,1025.79
2018-05-17T00:54:48.444Z,1025.78
2018-05-17T00:55:48.443Z,1025.77
2018-05-17T00:56:48.430Z,1025.75
2018-05-17T00:57:48.430Z,1025.73
2018-05-17T00:58:48.419Z,1025.77
2018-05-17T00:59:48.417Z,1025.78
2018-05-17T01:00:48.406Z,1025.78
2018-05-17T01:01:48.406Z,1025.79
2018-05-17T01:02:48.398Z,1025.75
2018-05-17T01:03:48.389Z,1025.76
2018-05-17T01:04:48.384Z,1025.73
2018-05-17T01:05:48.391Z,1025.75
2018-05-17T01:06:48.383Z,1025.73
2018-05-17T01:07:48.366Z,1025.7
2018-05-17T01:08:48.360Z,1025.72
2018-05-17T01:09:48.354Z,1025.72
2018-05-17T01:10:48.354Z,1025.68
2018-05-17T01:11:48.348Z,1025.69
2018-05-17T01:12:48.346Z,1025.63
2018-05-17T01:13:48.335Z,1025.65
2018-05-17T01:14:48.330Z,1025.64
2018-05-17T01:15:48.319Z,1025.57
2018-05-17T01:16:48.318Z,1025.59
2018-05-17T01:17:48.310Z,1025.58
2018-05-17T01:18:48.307Z,1025.56
2018-05-17T01:19:48.297Z,1025.55
2018-05-17T01:20:48.296Z,1025.54
2018-05-17T01:21:48.292Z,1025.55
2018-05-17T01:22:48.285Z,1025.52
2018-05-17T01:23:48.274Z,1025.53
2018-05-17T01:24:48.273Z,1025.52
2018-05-17T01:25:48.261Z,1025.57
2018-05-17T01:26:48.262Z,1025.55
2018-05-17T01:27:48.251Z,1025.55
2018-05-17T01:28:48.250Z,1025.59
2018-05-17T01:29:48.239Z,1025.59
2018-05-17T01:30:48.239Z,1025.63
2018-05-17T01:31:48.227Z,1025.64
2018-05-17T01:32:48.222Z,1025.62
2018-05-17T01:33:48.216Z,1025.65
2018-05-17T01:34:48.216Z,1025.65
2018-05-17T01:35:48.460Z,1025.67
2018-05-17T01:36:48.199Z,1025.65
2018-05-17T01:37:48.193Z,1025.63
2018-05-17T01:38:48.197Z,1025.66
2018-05-17T01:39:48.187Z,1025.68
2018-05-17T01:40:48.179Z,1025.67
2018-05-17T01:41:48.176Z,1025.7
2018-05-17T01:42:48.164Z,1025.7
2018-05-17T01:43:48.164Z,1025.71
2018-05-17T01:44:48.153Z,1025.74
2018-05-17T01:45:48.149Z,1025.73
2018-05-17T01:46:48.147Z,1025.74
2018-05-17T01:47:48.140Z,1025.73
2018-05-17T01:48:48.129Z,1025.77
2018-05-17T01:49:48.124Z,1025.79
2018-05-17T01:50:48.123Z,1025.79
2018-05-17T01:51:48.118Z,1025.75
2018-05-17T01:52:48.107Z,1025.75
2018-05-17T01:53:48.101Z,1025.76
2018-05-17T01:54:48.096Z,1025.75
2018-05-17T01:55:48.099Z,1025.73
2018-05-17T01:56:48.084Z,1025.71
2018-05-17T01:57:48.083Z,1025.71
2018-05-17T01:58:48.072Z,1025.71
2018-05-17T01:59:48.071Z,1025.71
2018-05-17T02:00:48.060Z,1025.68
2018-05-17T02:01:48.060Z,1025.7
2018-05-17T02:02:48.053Z,1025.68
2018-05-17T02:03:48.048Z,1025.7
2018-05-17T02:04:48.042Z,1025.69
2018-05-17T02:05:48.037Z,1025.73
2018-05-17T02:06:48.031Z,1025.69
2018-05-17T02:07:48.019Z,1025.67
2018-05-17T02:08:48.019Z,1025.68
2018-05-17T02:09:48.013Z,1025.65
2018-05-17T02:10:48.002Z,1025.66
2018-05-17T02:11:48.004Z,1025.67
2018-05-17T02:12:47.990Z,1025.67
2018-05-17T02:13:47.989Z,1025.68
2018-05-17T02:14:47.978Z,1025.67
2018-05-17T02:15:47.978Z,1025.69
2018-05-17T02:16:47.997Z,1025.67
2018-05-17T02:17:47.966Z,1025.65
2018-05-17T02:18:47.955Z,1025.68
2018-05-17T02:19:47.954Z,1025.66
2018-05-17T02:20:47.948Z,1025.7
2018-05-17T02:21:47.942Z,1025.68
2018-05-17T02:22:47.932Z,1025.69
2018-05-17T02:23:47.926Z,1025.7
2018-05-17T02:24:47.925Z,1025.7
2018-05-17T02:26:47.909Z,1025.71
2018-05-17T02:27:47.911Z,1025.69
2018-05-17T02:28:47.905Z,1025.72
2018-05-17T02:29:47.897Z,1025.68
2018-05-17T02:30:47.886Z,1025.73
2018-05-17T02:31:47.880Z,1025.74
2018-05-17T02:32:47.879Z,1025.73
2018-05-17T02:33:47.874Z,1025.77
2018-05-17T02:34:47.868Z,1025.74
2018-05-17T02:35:47.866Z,1025.71
2018-05-17T02:36:47.856Z,1025.73
2018-05-17T02:37:47.863Z,1025.71
2018-05-17T02:38:47.880Z,1025.69
2018-05-17T02:39:47.837Z,1025.71
2018-05-17T02:40:47.829Z,1025.72
2018-05-17T02:41:47.821Z,1025.73
2018-05-17T02:42:47.813Z,1025.76
2018-05-17T02:43:47.818Z,1025.75
2018-05-17T02:44:47.808Z,1025.73
2018-05-17T02:45:47.797Z,1025.72
2018-05-17T02:46:47.790Z,1025.73
2018-05-17T02:47:47.785Z,1025.73
2018-05-17T02:48:47.783Z,1025.7
2018-05-17T02:49:47.772Z,1025.72
2018-05-17T02:50:47.771Z,1025.75
2018-05-17T02:51:47.767Z,1025.76
2018-05-17T02:52:47.760Z,1025.78
2018-05-17T02:53:47.749Z,1025.82
2018-05-17T02:54:47.748Z,1025.8
2018-05-17T02:55:47.737Z,1025.81
2018-05-17T02:56:47.737Z,1025.78
2018-05-17T02:57:47.734Z,1025.79
2018-05-17T02:58:47.724Z,1025.81
2018-05-17T02:59:47.713Z,1025.84
2018-05-17T03:00:47.708Z,1025.8
2018-05-17T03:01:47.705Z,1025.86
2018-05-17T03:02:47.701Z,1025.84
2018-05-17T03:03:47.689Z,1025.85
2018-05-17T03:04:47.688Z,1025.83
2018-05-17T03:05:47.677Z,1025.83
2018-05-17T03:06:47.678Z,1025.82
2018-05-17T03:07:47.665Z,1025.82
2018-05-17T03:08:47.665Z,1025.83
2018-05-17T03:09:47.652Z,1025.79
2018-05-17T03:10:47.652Z,1025.85
2018-05-17T03:11:47.639Z,1025.84
2018-05-17T03:12:47.638Z,1025.84
2018-05-17T03:13:47.633Z,1025.88
2018-05-17T03:14:47.627Z,1025.87
2018-05-17T03:15:47.619Z,1025.93
2018-05-17T03:16:47.612Z,1025.92
2018-05-17T03:17:47.608Z,1025.95
2018-05-17T03:18:47.606Z,1025.97
2018-05-17T03:19:47.599Z,1025.97
2018-05-17T03:20:47.585Z,1025.99
2018-05-17T03:21:47.584Z,1025.99
2018-05-17T03:22:47.573Z,1026
2018-05-17T03:23:47.571Z,1025.98
2018-05-17T03:25:47.554Z,1025.98
2018-05-17T03:26:47.553Z,1025.98
2018-05-17T03:27:47.542Z,1025.96
2018-05-17T03:28:47.541Z,1025.94
2018-05-17T03:29:47.530Z,1025.96
2018-05-17T03:30:47.535Z,1025.96
2018-05-17T03:31:47.523Z,1025.96
2018-05-17T03:32:47.512Z,1025.94
2018-05-17T03:33:47.507Z,1025.95
2018-05-17T03:34:47.504Z,1025.97
2018-05-17T03:35:47.498Z,1025.96
2018-05-17T03:36:47.492Z,1025.98
2018-05-17T03:37:47.480Z,1026
2018-05-17T03:42:47.456Z,1025.97
2018-05-17T03:43:47.444Z,1025.96
2018-05-17T03:44:47.443Z,1025.97
2018-05-17T03:45:47.432Z,1025.94
2018-05-17T03:46:47.431Z,1025.96
2018-05-17T03:47:47.428Z,1025.96
2018-05-17T03:48:47.415Z,1025.97
2018-05-17T03:49:47.412Z,1025.95
2018-05-17T03:50:47.407Z,1025.94
2018-05-17T03:51:47.405Z,1025.92
2018-05-17T03:52:47.389Z,1025.9
2018-05-17T03:53:47.383Z,1025.91
2018-05-17T03:54:47.383Z,1025.93
2018-05-17T03:55:47.379Z,1025.91
2018-05-17T03:56:47.370Z,1025.88
2018-05-17T03:57:47.365Z,1025.85
2018-05-17T03:58:47.359Z,1025.88
2018-05-17T03:59:47.353Z,1025.84
2018-05-17T04:00:47.342Z,1025.85
2018-05-17T04:01:47.341Z,1025.84
2018-05-17T04:02:47.331Z,1025.83
2018-05-17T04:03:47.332Z,1025.84
2018-05-17T04:04:47.319Z,1025.83
2018-05-17T04:05:47.319Z,1025.82
2018-05-17T04:06:47.312Z,1025.86
2018-05-17T04:07:47.307Z,1025.84
2018-05-17T04:08:47.296Z,1025.86
2018-05-17T04:09:47.290Z,1025.82
2018-05-17T04:10:47.290Z,1025.85
2018-05-17T04:11:47.283Z,1025.86
2018-05-17T04:12:47.279Z,1025.87
2018-05-17T04:13:47.274Z,1025.85
2018-05-17T04:14:47.267Z,1025.88
2018-05-17T04:15:47.257Z,1025.86
2018-05-17T04:16:47.261Z,1025.88
2018-05-17T04:17:47.244Z,1025.85
2018-05-17T04:18:47.246Z,1025.82
2018-05-17T04:19:47.233Z,1025.82
2018-05-17T04:20:47.233Z,1025.81
2018-05-17T04:21:47.222Z,1025.79
2018-05-17T04:22:47.216Z,1025.73
2018-05-17T04:23:47.212Z,1025.71
2018-05-17T04:24:47.210Z,1025.69
2018-05-17T04:25:47.200Z,1025.64
2018-05-17T04:26:47.200Z,1025.58
2018-05-17T04:27:47.194Z,1025.58
2018-05-17T04:28:47.189Z,1025.54
2018-05-17T04:29:47.179Z,1025.52
2018-05-17T04:30:47.179Z,1025.41
2018-05-17T04:31:47.169Z,1025.34
2018-05-17T04:32:47.168Z,1025.33
2018-05-17T04:33:47.158Z,1025.26
2018-05-17T04:34:47.157Z,1025.23
2018-05-17T04:35:47.147Z,1025.18
2018-05-17T04:36:47.147Z,1025.09
2018-05-17T04:37:47.137Z,1025.07
2018-05-17T04:38:47.132Z,1025
2018-05-17T04:39:47.126Z,1024.87
2018-05-17T04:40:47.127Z,1024.76
2018-05-17T04:41:47.122Z,1024.68
2018-05-17T04:42:47.114Z,1024.62
2018-05-17T04:43:47.108Z,1024.55
2018-05-17T04:44:47.108Z,1024.5
2018-05-17T04:50:47.083Z,1024.16
2018-05-17T04:51:47.073Z,1024.03
2018-05-17T04:52:47.074Z,1023.96
2018-05-17T04:53:47.065Z,1023.94
2018-05-17T04:54:47.107Z,1023.88
2018-05-17T04:55:47.057Z,1023.83
2018-05-17T04:56:47.054Z,1023.77
2018-05-17T04:57:47.055Z,1023.69
2018-05-17T04:58:47.050Z,1023.69
2018-05-17T04:59:47.042Z,1023.6
2018-05-17T05:00:47.039Z,1023.63
2018-05-17T05:01:47.040Z,1023.59
2018-05-17T05:02:47.115Z,1023.62
2018-05-17T05:03:47.029Z,1023.58
2018-05-17T05:04:47.030Z,1023.63
2018-05-17T05:05:47.023Z,1023.61
2018-05-17T05:06:47.025Z,1023.6
2018-05-17T05:07:47.029Z,1023.62
2018-05-17T05:08:47.018Z,1023.65
2018-05-17T05:09:47.010Z,1023.64
2018-05-17T05:10:47.013Z,1023.64
2018-05-17T05:11:47.005Z,1023.61
2018-05-17T05:12:47.007Z,1023.58
2018-05-17T05:13:46.999Z,1023.55
2018-05-17T05:14:47.001Z,1023.52
2018-05-17T05:15:46.999Z,1023.4
2018-05-17T05:16:46.995Z,1023.35
2018-05-17T05:17:46.988Z,1023.3
2018-05-17T05:18:46.986Z,1023.27
2018-05-17T05:19:46.987Z,1023.15
2018-05-17T05:20:46.984Z,1023.1
2018-05-17T05:21:46.977Z,1022.96
2018-05-17T05:22:46.980Z,1022.87
2018-05-17T05:23:46.978Z,1022.84
2018-05-17T05:24:46.977Z,1022.75
2018-05-17T05:25:46.969Z,1022.68
2018-05-17T05:26:46.973Z,1022.58
2018-05-17T05:27:46.967Z,1022.48
2018-05-17T05:28:46.968Z,1022.49
2018-05-17T05:29:46.963Z,1022.49
2018-05-17T05:30:46.965Z,1022.45
2018-05-17T05:31:46.967Z,1022.51
2018-05-17T05:32:46.963Z,1022.46
2018-05-17T05:33:46.959Z,1022.28
2018-05-17T05:34:46.963Z,1022.27
2018-05-17T05:35:46.954Z,1022.31
2018-05-17T05:36:46.953Z,1022.24
2018-05-17T05:37:46.952Z,1022.06
2018-05-17T05:38:46.957Z,1021.95
2018-05-17T05:39:46.952Z,1021.81
2018-05-17T05:40:46.957Z,1021.69
2018-05-17T05:41:46.950Z,1021.54
2018-05-17T05:42:46.955Z,1021.46
2018-05-17T05:43:46.956Z,1021.36
2018-05-17T05:44:46.955Z,1021.28
2018-05-17T05:45:46.950Z,1021.24
2018-05-17T05:46:46.956Z,1021.2
2018-05-17T05:47:46.971Z,1021.15
2018-05-17T05:48:46.951Z,1021.05
2018-05-17T05:49:46.958Z,1021.02
2018-05-17T05:50:46.960Z,1021.12
2018-05-17T05:51:46.956Z,1021.17
2018-05-17T05:52:46.959Z,1021.18
2018-05-17T05:53:46.958Z,1021.13
2018-05-17T05:54:46.966Z,1021.08
2018-05-17T05:55:46.961Z,1021.02
2018-05-17T05:56:46.971Z,1021.14
2018-05-17T05:57:46.963Z,1021.24
2018-05-17T05:58:46.972Z,1021.3
2018-05-17T05:59:46.967Z,1021.38
2018-05-17T06:00:46.973Z,1021.35
2018-05-17T06:01:46.973Z,1021.24
2018-05-17T06:02:46.980Z,1021.15
2018-05-17T06:03:46.979Z,1021.11
2018-05-17T06:04:46.981Z,1020.94
2018-05-17T06:05:46.997Z,1020.85
2018-05-17T06:06:46.981Z,1020.76
2018-05-17T06:07:46.988Z,1020.56
2018-05-17T06:08:46.998Z,1020.48
2018-05-17T06:09:47.008Z,1020.41
2018-05-17T06:10:46.992Z,1020.38
2018-05-17T06:11:46.999Z,1020.29
2018-05-17T06:12:47.002Z,1020.33
2018-05-17T06:13:47.000Z,1020.34
2018-05-17T06:14:47.009Z,1020.27
2018-05-17T06:15:47.006Z,1020.18
2018-05-17T06:16:47.010Z,1020.09
2018-05-17T06:17:47.014Z,1019.97
2018-05-17T06:18:47.052Z,1019.81
2018-05-17T06:19:47.029Z,1019.73
2018-05-17T06:20:47.026Z,1019.57
2018-05-17T06:21:47.031Z,1019.54
2018-05-17T06:22:47.035Z,1019.48
2018-05-17T06:23:47.090Z,1019.42
2018-05-17T06:24:47.045Z,1019.45
2018-05-17T06:25:47.056Z,1019.37
2018-05-17T06:26:47.077Z,1019.3
2018-05-17T06:27:47.066Z,1019.23
2018-05-17T06:28:47.069Z,1019.21
2018-05-17T06:29:47.077Z,1019.19
2018-05-17T06:30:47.078Z,1019.19
2018-05-17T06:31:47.090Z,1019.25
2018-05-17T06:32:47.094Z,1019.3
2018-05-17T06:33:47.101Z,1019.34
2018-05-17T06:34:47.103Z,1019.24
2018-05-17T06:35:47.109Z,1019.09
2018-05-17T06:36:47.120Z,1018.95
2018-05-17T06:37:47.126Z,1018.77
2018-05-17T06:38:47.128Z,1018.59
2018-05-17T06:39:47.142Z,1018.34
2018-05-17T06:40:47.148Z,1018.2
2018-05-17T06:41:47.154Z,1018.04
2018-05-17T06:42:47.159Z,1017.96
2018-05-17T06:43:47.170Z,1017.91
2018-05-17T06:44:47.172Z,1017.86
2018-05-17T06:45:47.183Z,1017.86
2018-05-17T06:46:47.189Z,1017.8
2018-05-17T06:47:47.200Z,1017.77
2018-05-17T06:48:47.209Z,1017.78
2018-05-17T06:49:47.214Z,1017.91
2018-05-17T06:50:47.224Z,1017.99
2018-05-17T06:51:47.230Z,1018.22
2018-05-17T06:52:47.243Z,1018.59
2018-05-17T06:53:47.247Z,1018.65
2018-05-17T06:54:47.260Z,1018.89
2018-05-17T06:55:47.263Z,1018.93
2018-05-17T06:56:47.280Z,1019.18
2018-05-17T06:57:47.281Z,1019.22
2018-05-17T06:58:47.294Z,1019.23
2018-05-17T06:59:47.304Z,1019.28
2018-05-17T07:00:47.401Z,1019.31
2018-05-17T07:01:47.320Z,1019.4
2018-05-17T07:02:47.326Z,1019.42
2018-05-17T07:03:47.331Z,1019.55
2018-05-17T07:04:47.345Z,1019.62
2018-05-17T07:05:47.346Z,1019.76
2018-05-17T07:06:47.355Z,1019.86
2018-05-17T07:07:47.363Z,1019.88
2018-05-17T07:08:47.376Z,1019.9
2018-05-17T07:09:47.380Z,1019.94
2018-05-17T07:10:47.391Z,1019.91
2018-05-17T07:11:47.399Z,1019.88
2018-05-17T07:12:47.405Z,1019.91
2018-05-17T07:13:47.410Z,1019.84
2018-05-17T07:14:47.421Z,1019.7
2018-05-17T07:15:47.424Z,1019.53
2018-05-17T07:16:47.453Z,1019.38
2018-05-17T07:17:47.440Z,1019.24
2018-05-17T07:18:47.847Z,1019.15
2018-05-17T07:19:47.458Z,1019.06
2018-05-17T07:20:47.465Z,1018.98
2018-05-17T07:21:47.478Z,1018.83
2018-05-17T07:22:47.476Z,1018.75
2018-05-17T07:23:47.484Z,1018.67
2018-05-17T07:24:47.496Z,1018.7
2018-05-17T07:25:47.531Z,1018.69
2018-05-17T07:26:47.513Z,1018.71
2018-05-17T07:27:47.515Z,1018.66
2018-05-17T07:28:47.529Z,1018.59
2018-05-17T07:29:47.578Z,1018.47
2018-05-17T07:30:47.541Z,1018.37
2018-05-17T07:31:47.559Z,1018.24
2018-05-17T07:32:47.560Z,1018.13
2018-05-17T07:33:47.571Z,1018.11
2018-05-17T07:34:47.576Z,1018.21
2018-05-17T07:35:47.590Z,1018.36
2018-05-17T07:36:47.598Z,1018.57
2018-05-17T07:37:47.610Z,1018.78
2018-05-17T07:38:47.611Z,1019.1
2018-05-17T07:39:47.634Z,1019.3
2018-05-17T07:40:47.635Z,1019.44
2018-05-17T07:41:47.639Z,1019.67
2018-05-17T07:42:47.653Z,1019.79
2018-05-17T07:43:47.658Z,1019.94
2018-05-17T07:44:47.670Z,1020.07
2018-05-17T07:45:47.683Z,1020.17
2018-05-17T07:46:47.751Z,1020.26
2018-05-17T07:47:47.698Z,1020.37
2018-05-17T07:48:47.704Z,1020.45
2018-05-17T07:49:47.718Z,1020.52
2018-05-17T07:50:47.737Z,1020.54
2018-05-17T07:51:47.737Z,1020.59
2018-05-17T07:52:47.761Z,1020.57
2018-05-17T07:53:47.765Z,1020.46
2018-05-17T07:54:47.754Z,1020.37
2018-05-17T07:55:47.754Z,1020.24
2018-05-17T07:56:47.775Z,1020.02
2018-05-17T07:57:47.769Z,1019.8
2018-05-17T07:58:47.782Z,1019.57
2018-05-17T07:59:47.788Z,1019.38
2018-05-17T08:00:47.797Z,1019.22
2018-05-17T08:01:47.835Z,1019.11
2018-05-17T08:02:47.814Z,1018.99
2018-05-17T08:03:47.828Z,1019.05
2018-05-17T08:04:47.830Z,1019.1
2018-05-17T08:05:47.838Z,1019.16
2018-05-17T08:06:47.847Z,1019.14
2018-05-17T08:07:47.850Z,1019.09
2018-05-17T08:08:47.873Z,1019.13
2018-05-17T08:09:47.880Z,1019.12
2018-05-17T08:10:47.902Z,1019.27
2018-05-17T08:11:47.888Z,1019.3
2018-05-17T08:12:47.891Z,1019.27
2018-05-17T08:13:47.923Z,1019.14
2018-05-17T08:14:47.919Z,1019.09
2018-05-17T08:15:47.922Z,1019.09
2018-05-17T08:16:47.937Z,1019
2018-05-17T08:17:47.941Z,1019.01
2018-05-17T08:18:47.942Z,1018.92
2018-05-17T08:19:47.955Z,1018.79
2018-05-17T08:20:47.963Z,1018.66
2018-05-17T08:21:47.974Z,1018.91
2018-05-17T08:22:47.988Z,1018.93
2018-05-17T08:23:47.996Z,1018.86
2018-05-17T08:24:47.995Z,1018.81
2018-05-17T08:25:48.022Z,1018.72
2018-05-17T08:26:48.033Z,1018.79
2018-05-17T08:27:48.035Z,1018.92
2018-05-17T08:28:48.031Z,1019.13
2018-05-17T08:29:48.044Z,1019.31
2018-05-17T08:30:48.047Z,1019.47
2018-05-17T08:31:48.061Z,1019.67
2018-05-17T08:32:48.066Z,1019.81
2018-05-17T08:33:48.083Z,1019.87
2018-05-17T08:34:48.094Z,1019.87
2018-05-17T08:35:48.096Z,1019.93
2018-05-17T08:36:48.288Z,1019.87
2018-05-17T08:37:48.108Z,1019.85
2018-05-17T08:38:48.118Z,1019.72
2018-05-17T08:39:48.130Z,1019.63
2018-05-17T08:40:48.137Z,1019.77
2018-05-17T08:41:48.143Z,1019.91
2018-05-17T08:42:48.158Z,1020.18
2018-05-17T08:43:48.164Z,1020.59
2018-05-17T08:44:48.169Z,1020.97
2018-05-17T08:45:48.173Z,1021.3
2018-05-17T08:46:48.186Z,1021.7
2018-05-17T08:47:48.193Z,1021.89
2018-05-17T08:48:48.197Z,1022.11
2018-05-17T08:49:48.208Z,1022.23
2018-05-17T08:50:48.214Z,1022.35
2018-05-17T08:51:48.221Z,1022.39
2018-05-17T08:52:48.225Z,1022.45
2018-05-17T08:53:48.230Z,1022.5
2018-05-17T08:54:48.234Z,1022.49
2018-05-17T08:55:48.257Z,1022.55
2018-05-17T08:56:48.255Z,1022.6
2018-05-17T08:57:48.282Z,1022.69
2018-05-17T08:58:48.289Z,1022.77
2018-05-17T08:59:48.338Z,1022.95
2018-05-17T09:00:48.271Z,1023.06
2018-05-17T09:01:48.275Z,1023.13
2018-05-17T09:02:48.283Z,1023.23
2018-05-17T09:03:48.284Z,1023.28
2018-05-17T09:04:48.298Z,1023.33
2018-05-17T09:05:48.292Z,1023.33
2018-05-17T09:06:48.309Z,1023.34
2018-05-17T09:07:48.315Z,1023.34
2018-05-17T09:08:48.311Z,1023.38
2018-05-17T09:09:48.309Z,1023.45
2018-05-17T09:10:48.332Z,1023.4
2018-05-17T09:11:48.319Z,1023.35
2018-05-17T09:12:48.325Z,1023.42
2018-05-17T09:13:48.371Z,1023.57
2018-05-17T09:14:48.327Z,1023.48
2018-05-17T09:15:48.339Z,1023.53
2018-05-17T09:16:48.332Z,1023.56
2018-05-17T09:17:48.332Z,1023.58
2018-05-17T09:18:48.336Z,1023.59
2018-05-17T09:19:48.338Z,1023.54
2018-05-17T09:20:48.342Z,1023.52
2018-05-17T09:21:48.341Z,1023.57
2018-05-17T09:22:48.350Z,1023.68
2018-05-17T09:23:48.346Z,1023.64
2018-05-17T09:24:48.355Z,1023.53
2018-05-17T09:25:48.360Z,1023.43
2018-05-17T09:26:48.363Z,1023.4
2018-05-17T09:27:48.358Z,1023.32
2018-05-17T09:28:48.358Z,1023.29
2018-05-17T09:29:48.371Z,1023.44
2018-05-17T09:30:48.374Z,1023.38
2018-05-17T09:31:48.378Z,1023.38
2018-05-17T09:32:48.369Z,1023.31
2018-05-17T09:33:48.378Z,1023.25
2018-05-17T09:34:48.374Z,1023.17
2018-05-17T09:35:48.477Z,1023.06
2018-05-17T09:36:48.380Z,1022.93
2018-05-17T09:37:48.388Z,1022.81
2018-05-17T09:38:48.391Z,1022.76
2018-05-17T09:39:48.388Z,1022.7
2018-05-17T09:40:48.397Z,1022.67
2018-05-17T09:41:48.399Z,1022.6
2018-05-17T09:42:48.400Z,1022.47
2018-05-17T09:43:48.400Z,1022.37
2018-05-17T09:44:48.405Z,1022.29
2018-05-17T09:45:48.414Z,1022.18
2018-05-17T09:46:48.416Z,1022.17
2018-05-17T09:47:48.421Z,1022.2
2018-05-17T09:48:48.418Z,1022.24
2018-05-17T09:49:48.430Z,1022.16
2018-05-17T09:50:48.426Z,1022.28
2018-05-17T09:51:48.437Z,1022.41
2018-05-17T09:52:48.436Z,1022.44
2018-05-17T09:53:48.442Z,1022.41
2018-05-17T09:54:48.443Z,1022.51
2018-05-17T09:55:48.451Z,1022.46
2018-05-17T09:56:48.458Z,1022.49
2018-05-17T09:57:48.454Z,1022.49
2018-05-17T09:58:48.457Z,1022.45
2018-05-17T09:59:48.467Z,1022.53
2018-05-17T10:00:48.473Z,1022.56
2018-05-17T10:01:48.474Z,1022.54
2018-05-17T10:02:48.489Z,1022.57
2018-05-17T10:03:48.487Z,1022.58
2018-05-17T10:04:48.489Z,1022.61
2018-05-17T10:05:48.499Z,1022.61
2018-05-17T10:06:48.752Z,1022.59
2018-05-17T10:07:48.512Z,1022.59
2018-05-17T10:08:48.542Z,1022.6
2018-05-17T10:09:48.509Z,1022.67
2018-05-17T10:10:48.508Z,1022.66
2018-05-17T10:11:48.517Z,1022.65
2018-05-17T10:12:48.516Z,1022.61
2018-05-17T10:13:48.531Z,1022.68
2018-05-17T10:14:48.525Z,1022.65
2018-05-17T10:15:48.533Z,1022.71
2018-05-17T10:16:48.540Z,1022.71
2018-05-17T10:17:48.540Z,1022.72
2018-05-17T10:18:48.546Z,1022.77
2018-05-17T10:19:48.550Z,1022.71
2018-05-17T10:20:48.554Z,1022.74
2018-05-17T10:21:48.573Z,1022.74
2018-05-17T10:22:48.562Z,1022.84
2018-05-17T10:23:48.561Z,1022.86
2018-05-17T10:24:48.577Z,1022.91
2018-05-17T10:25:48.583Z,1022.87
2018-05-17T10:26:48.577Z,1022.87
2018-05-17T10:27:48.578Z,1022.91
2018-05-17T10:28:48.585Z,1022.95
2018-05-17T10:29:48.585Z,1023.05
2018-05-17T10:30:48.592Z,1023.21
2018-05-17T10:31:48.596Z,1023.27
2018-05-17T10:32:48.599Z,1023.21
2018-05-17T10:33:48.597Z,1023.2
2018-05-17T10:34:48.601Z,1023.26
2018-05-17T10:35:48.608Z,1023.25
2018-05-17T10:36:48.634Z,1023.33
2018-05-17T10:37:48.631Z,1023.34
2018-05-17T10:38:48.629Z,1023.43
2018-05-17T10:39:48.619Z,1023.39
2018-05-17T10:40:48.627Z,1023.36
2018-05-17T10:41:48.624Z,1023.31
2018-05-17T10:42:48.641Z,1023.29
2018-05-17T10:43:48.643Z,1023.24
2018-05-17T10:44:48.634Z,1023.19
2018-05-17T10:45:48.637Z,1023.2
2018-05-17T10:46:48.643Z,1023.09
2018-05-17T10:47:48.649Z,1023.02
2018-05-17T10:48:48.651Z,1022.89
2018-05-17T10:49:48.652Z,1022.85
2018-05-17T10:50:48.653Z,1022.79
2018-05-17T10:51:48.657Z,1022.79
2018-05-17T10:52:48.665Z,1022.74
2018-05-17T10:53:48.663Z,1022.75
2018-05-17T10:54:48.667Z,1022.64
2018-05-17T10:55:48.676Z,1022.61
2018-05-17T10:56:48.678Z,1022.61
2018-05-17T10:57:48.682Z,1022.52
2018-05-17T10:58:48.691Z,1022.58
2018-05-17T10:59:48.689Z,1022.53
2018-05-17T11:00:48.705Z,1022.5
2018-05-17T11:01:48.692Z,1022.49
2018-05-17T11:02:48.698Z,1022.49
2018-05-17T11:03:48.705Z,1022.5
2018-05-17T11:04:48.709Z,1022.51
2018-05-17T11:05:48.707Z,1022.44
2018-05-17T11:06:48.710Z,1022.45
2018-05-17T11:07:48.720Z,1022.5
2018-05-17T11:08:48.725Z,1022.55
2018-05-17T11:09:48.722Z,1022.53
2018-05-17T11:10:48.731Z,1022.45
2018-05-17T11:11:48.731Z,1022.5
2018-05-17T11:12:48.740Z,1022.48
2018-05-17T11:13:48.751Z,1022.51
2018-05-17T11:14:48.747Z,1022.44
2018-05-17T11:15:48.751Z,1022.42
2018-05-17T11:16:48.757Z,1022.39
2018-05-17T11:17:48.759Z,1022.3
2018-05-17T11:18:48.764Z,1022.29
2018-05-17T11:19:48.764Z,1022.36
2018-05-17T11:20:48.785Z,1022.34
2018-05-17T11:21:48.784Z,1022.24
2018-05-17T11:22:48.777Z,1022.26
2018-05-17T11:23:48.780Z,1022.26
2018-05-17T11:24:48.791Z,1022.23
2018-05-17T11:25:48.819Z,1022.25
2018-05-17T11:26:48.812Z,1022.15
2018-05-17T11:27:48.800Z,1022.22
2018-05-17T11:28:48.832Z,1022.18
2018-05-17T11:29:48.818Z,1022.17
2018-05-17T11:30:48.826Z,1022.25
2018-05-17T11:31:48.824Z,1022.26
2018-05-17T11:32:48.833Z,1022.27
2018-05-17T11:33:48.832Z,1022.31
2018-05-17T11:34:48.837Z,1022.3
2018-05-17T11:35:48.837Z,1022.35
2018-05-17T11:36:48.845Z,1022.37
2018-05-17T11:37:48.851Z,1022.4
2018-05-17T11:38:48.859Z,1022.42
2018-05-17T11:39:48.861Z,1022.42
2018-05-17T11:40:48.862Z,1022.47
2018-05-17T11:41:48.874Z,1022.43
2018-05-17T11:42:48.871Z,1022.48
2018-05-17T11:43:48.891Z,1022.54
2018-05-17T11:44:48.892Z,1022.5
2018-05-17T11:45:48.889Z,1022.53
2018-05-17T11:46:48.900Z,1022.59
2018-05-17T11:47:48.895Z,1022.56
2018-05-17T11:48:48.912Z,1022.57
2018-05-17T11:49:48.909Z,1022.55
2018-05-17T11:50:48.926Z,1022.53
2018-05-17T11:51:48.913Z,1022.62
2018-05-17T11:52:48.917Z,1022.53
2018-05-17T11:53:48.928Z,1022.6
2018-05-17T11:54:48.933Z,1022.51
2018-05-17T11:55:48.936Z,1022.55
2018-05-17T11:56:48.937Z,1022.59
2018-05-17T11:57:48.964Z,1022.54
2018-05-17T11:58:48.946Z,1022.54
2018-05-17T11:59:48.960Z,1022.52
2018-05-17T12:00:48.955Z,1022.51
2018-05-17T12:01:48.964Z,1022.63
2018-05-17T12:02:48.974Z,1022.64
2018-05-17T12:03:48.978Z,1022.66
2018-05-17T12:04:48.973Z,1022.7
2018-05-17T12:05:48.981Z,1022.7
2018-05-17T12:06:48.993Z,1022.73
2018-05-17T12:07:49.006Z,1022.75
2018-05-17T12:08:48.996Z,1022.76
2018-05-17T12:09:48.996Z,1022.82
2018-05-17T12:10:49.000Z,1022.85
2018-05-17T12:11:49.014Z,1022.84
2018-05-17T12:12:49.009Z,1022.8
2018-05-17T12:13:49.020Z,1022.8
2018-05-17T12:14:49.018Z,1022.74
2018-05-17T12:15:49.031Z,1022.7
2018-05-17T12:16:49.026Z,1022.72
2018-05-17T12:17:49.038Z,1022.73
2018-05-17T12:18:49.037Z,1022.74
2018-05-17T12:19:49.055Z,1022.76